sensor_id;sensor_type;location;lat;lon;timestamp;temperature;humidity
9179;DHT22;4624;48.126;11.546;2022-09-01T00:00:38;16.10;99.90
9179;DHT22;4624;48.126;11.546;2022-09-01T00:03:07;16.10;99.90
9179;DHT22;4624;48.126;11.546;2022-09-01T00:05:35;16.10;99.90
9179;DHT22;4624;48.126;11.546;2022-09-01T00:08:02;16.10;99.90
9179;DHT22;4624;48.126;11.546;2022-09-01T00:10:30;16.10;99.90
9179;DHT22;4624;48.126;11.546;2022-09-01T00:12:58;16.00;99.90
9179;DHT22;4624;48.126;11.546;2022-09-01T00:15:25;16.10;99.90
9179;DHT22;4624;48.126;11.546;2022-09-01T00:17:52;16.00;99.90
9179;DHT22;4624;48.126;11.546;2022-09-01T00:20:19;15.90;99.90
9179;DHT22;4624;48.126;11.546;2022-09-01T00:22:46;16.00;99.90
9179;DHT22;4624;48.126;11.546;2022-09-01T00:25:13;16.00;99.90
9179;DHT22;4624;48.126;11.546;2022-09-01T00:27:41;16.00;99.90
9179;DHT22;4624;48.126;11.546;2022-09-01T00:30:10;16.00;99.90
9179;DHT22;4624;48.126;11.546;2022-09-01T00:32:37;16.10;99.90
9179;DHT22;4624;48.126;11.546;2022-09-01T00:35:04;16.10;99.90
9179;DHT22;4624;48.126;11.546;2022-09-01T00:37:33;16.10;99.90
9179;DHT22;4624;48.126;11.546;2022-09-01T00:39:59;16.10;99.90
9179;DHT22;4624;48.126;11.546;2022-09-01T00:42:26;16.10;99.90
9179;DHT22;4624;48.126;11.546;2022-09-01T00:44:53;16.10;99.90
9179;DHT22;4624;48.126;11.546;2022-09-01T00:47:21;16.00;99.90
9179;DHT22;4624;48.126;11.546;2022-09-01T00:49:50;16.00;99.90
9179;DHT22;4624;48.126;11.546;2022-09-01T00:52:21;16.10;99.90
9179;DHT22;4624;48.126;11.546;2022-09-01T00:54:55;16.00;99.90
9179;DHT22;4624;48.126;11.546;2022-09-01T00:57:24;16.00;99.90
9179;DHT22;4624;48.126;11.546;2022-09-01T00:59:56;16.00;99.90
9179;DHT22;4624;48.126;11.546;2022-09-01T01:02:24;16.00;99.90
9179;DHT22;4624;48.126;11.546;2022-09-01T01:04:51;16.00;99.90
9179;DHT22;4624;48.126;11.546;2022-09-01T01:07:23;16.00;99.90
9179;DHT22;4624;48.126;11.546;2022-09-01T01:09:52;16.00;99.90
9179;DHT22;4624;48.126;11.546;2022-09-01T01:12:19;16.00;99.90
9179;DHT22;4624;48.126;11.546;2022-09-01T01:14:47;16.00;99.90
9179;DHT22;4624;48.126;11.546;2022-09-01T01:17:15;16.10;99.90
9179;DHT22;4624;48.126;11.546;2022-09-01T01:19:45;16.00;99.90
9179;DHT22;4624;48.126;11.546;2022-09-01T01:22:38;16.10;99.90
9179;DHT22;4624;48.126;11.546;2022-09-01T01:25:25;16.10;99.90
9179;DHT22;4624;48.126;11.546;2022-09-01T01:28:03;16.10;99.90
9179;DHT22;4624;48.126;11.546;2022-09-01T01:30:31;16.10;99.90
9179;DHT22;4624;48.126;11.546;2022-09-01T01:33:00;16.00;99.90
9179;DHT22;4624;48.126;11.546;2022-09-01T01:35:27;16.00;99.90
9179;DHT22;4624;48.126;11.546;2022-09-01T01:37:54;16.00;99.90
9179;DHT22;4624;48.126;11.546;2022-09-01T01:40:21;16.00;99.90
9179;DHT22;4624;48.126;11.546;2022-09-01T01:42:51;16.00;99.90
9179;DHT22;4624;48.126;11.546;2022-09-01T01:45:20;16.00;99.90
9179;DHT22;4624;48.126;11.546;2022-09-01T01:47:49;16.00;99.90
9179;DHT22;4624;48.126;11.546;2022-09-01T01:50:18;16.10;99.90
9179;DHT22;4624;48.126;11.546;2022-09-01T01:52:44;16.10;99.90
9179;DHT22;4624;48.126;11.546;2022-09-01T01:55:12;16.10;99.90
9179;DHT22;4624;48.126;11.546;2022-09-01T01:57:44;16.10;99.90
9179;DHT22;4624;48.126;11.546;2022-09-01T02:00:17;16.00;99.90
9179;DHT22;4624;48.126;11.546;2022-09-01T02:02:46;16.00;99.90
9179;DHT22;4624;48.126;11.546;2022-09-01T02:05:20;16.00;99.90
9179;DHT22;4624;48.126;11.546;2022-09-01T02:07:51;16.00;99.90
9179;DHT22;4624;48.126;11.546;2022-09-01T02:10:23;15.90;99.90
9179;DHT22;4624;48.126;11.546;2022-09-01T02:12:50;16.00;99.90
9179;DHT22;4624;48.126;11.546;2022-09-01T02:15:19;16.00;99.90
9179;DHT22;4624;48.126;11.546;2022-09-01T02:17:45;15.90;99.90
9179;DHT22;4624;48.126;11.546;2022-09-01T02:20:14;15.80;99.90
9179;DHT22;4624;48.126;11.546;2022-09-01T02:22:42;15.80;99.90
9179;DHT22;4624;48.126;11.546;2022-09-01T02:25:11;15.80;99.90
9179;DHT22;4624;48.126;11.546;2022-09-01T02:27:41;15.80;99.90
9179;DHT22;4624;48.126;11.546;2022-09-01T02:30:09;15.80;99.90
9179;DHT22;4624;48.126;11.546;2022-09-01T02:32:39;15.90;99.90
9179;DHT22;4624;48.126;11.546;2022-09-01T02:35:07;15.90;99.90
9179;DHT22;4624;48.126;11.546;2022-09-01T02:37:37;15.80;99.90
9179;DHT22;4624;48.126;11.546;2022-09-01T02:40:06;15.70;99.90
9179;DHT22;4624;48.126;11.546;2022-09-01T02:42:36;15.70;99.90
9179;DHT22;4624;48.126;11.546;2022-09-01T02:45:06;15.60;99.90
9179;DHT22;4624;48.126;11.546;2022-09-01T02:47:43;15.60;99.90
9179;DHT22;4624;48.126;11.546;2022-09-01T02:50:12;15.60;99.90
9179;DHT22;4624;48.126;11.546;2022-09-01T02:52:41;15.60;99.90
9179;DHT22;4624;48.126;11.546;2022-09-01T02:55:09;15.60;99.90
9179;DHT22;4624;48.126;11.546;2022-09-01T02:57:36;15.60;99.90
9179;DHT22;4624;48.126;11.546;2022-09-01T03:00:04;15.60;99.90
9179;DHT22;4624;48.126;11.546;2022-09-01T03:02:47;15.50;99.90
9179;DHT22;4624;48.126;11.546;2022-09-01T03:05:15;15.50;99.90
9179;DHT22;4624;48.126;11.546;2022-09-01T03:07:43;15.50;99.90
9179;DHT22;4624;48.126;11.546;2022-09-01T03:10:10;15.40;99.90
9179;DHT22;4624;48.126;11.546;2022-09-01T03:12:37;15.40;99.90
9179;DHT22;4624;48.126;11.546;2022-09-01T03:15:04;15.40;99.90
9179;DHT22;4624;48.126;11.546;2022-09-01T03:17:31;15.40;99.90
9179;DHT22;4624;48.126;11.546;2022-09-01T03:20:01;15.40;99.90
9179;DHT22;4624;48.126;11.546;2022-09-01T03:22:28;15.40;99.90
9179;DHT22;4624;48.126;11.546;2022-09-01T03:24:55;15.40;99.90
9179;DHT22;4624;48.126;11.546;2022-09-01T03:27:22;15.30;99.90
9179;DHT22;4624;48.126;11.546;2022-09-01T03:29:49;15.30;99.90
9179;DHT22;4624;48.126;11.546;2022-09-01T03:32:16;15.30;99.90
9179;DHT22;4624;48.126;11.546;2022-09-01T03:34:43;15.40;99.90
9179;DHT22;4624;48.126;11.546;2022-09-01T03:37:11;15.30;99.90
9179;DHT22;4624;48.126;11.546;2022-09-01T03:39:38;15.30;99.90
9179;DHT22;4624;48.126;11.546;2022-09-01T03:42:05;15.30;99.90
9179;DHT22;4624;48.126;11.546;2022-09-01T03:44:35;15.40;99.90
9179;DHT22;4624;48.126;11.546;2022-09-01T03:47:05;15.40;99.90
9179;DHT22;4624;48.126;11.546;2022-09-01T03:49:35;15.40;99.90
9179;DHT22;4624;48.126;11.546;2022-09-01T03:52:04;15.40;99.90
9179;DHT22;4624;48.126;11.546;2022-09-01T03:54:33;15.30;99.90
9179;DHT22;4624;48.126;11.546;2022-09-01T03:57:00;15.40;99.90
9179;DHT22;4624;48.126;11.546;2022-09-01T03:59:30;15.40;99.90
9179;DHT22;4624;48.126;11.546;2022-09-01T04:01:57;15.40;99.90
9179;DHT22;4624;48.126;11.546;2022-09-01T04:04:24;15.40;99.90
9179;DHT22;4624;48.126;11.546;2022-09-01T04:06:51;15.30;99.90
9179;DHT22;4624;48.126;11.546;2022-09-01T04:09:18;15.40;99.90
9179;DHT22;4624;48.126;11.546;2022-09-01T04:11:46;15.40;99.90
9179;DHT22;4624;48.126;11.546;2022-09-01T04:14:16;15.30;99.90
9179;DHT22;4624;48.126;11.546;2022-09-01T04:16:43;15.30;99.90
9179;DHT22;4624;48.126;11.546;2022-09-01T04:19:28;15.30;99.90
9179;DHT22;4624;48.126;11.546;2022-09-01T04:22:01;15.40;99.90
9179;DHT22;4624;48.126;11.546;2022-09-01T04:24:31;15.30;99.90
9179;DHT22;4624;48.126;11.546;2022-09-01T04:27:01;15.30;99.90
9179;DHT22;4624;48.126;11.546;2022-09-01T04:29:29;15.30;99.90
9179;DHT22;4624;48.126;11.546;2022-09-01T04:31:57;15.30;99.90
9179;DHT22;4624;48.126;11.546;2022-09-01T04:34:26;15.20;99.90
9179;DHT22;4624;48.126;11.546;2022-09-01T04:36:55;15.20;99.90
9179;DHT22;4624;48.126;11.546;2022-09-01T04:39:23;15.20;99.90
9179;DHT22;4624;48.126;11.546;2022-09-01T04:41:50;15.20;99.90
9179;DHT22;4624;48.126;11.546;2022-09-01T04:44:18;15.20;99.90
9179;DHT22;4624;48.126;11.546;2022-09-01T04:46:46;15.30;99.90
9179;DHT22;4624;48.126;11.546;2022-09-01T04:49:16;15.30;99.90
9179;DHT22;4624;48.126;11.546;2022-09-01T04:51:48;15.30;99.90
9179;DHT22;4624;48.126;11.546;2022-09-01T04:54:16;15.40;99.90
9179;DHT22;4624;48.126;11.546;2022-09-01T04:56:46;15.40;99.90
9179;DHT22;4624;48.126;11.546;2022-09-01T04:59:19;15.40;99.90
9179;DHT22;4624;48.126;11.546;2022-09-01T05:01:47;15.40;99.90
9179;DHT22;4624;48.126;11.546;2022-09-01T05:04:16;15.40;99.90
9179;DHT22;4624;48.126;11.546;2022-09-01T05:06:45;15.40;99.90
9179;DHT22;4624;48.126;11.546;2022-09-01T05:09:15;15.40;99.90
9179;DHT22;4624;48.126;11.546;2022-09-01T05:11:42;15.40;99.90
9179;DHT22;4624;48.126;11.546;2022-09-01T05:14:09;15.30;99.90
9179;DHT22;4624;48.126;11.546;2022-09-01T05:16:38;15.30;99.90
9179;DHT22;4624;48.126;11.546;2022-09-01T05:19:07;15.20;99.90
9179;DHT22;4624;48.126;11.546;2022-09-01T05:21:39;15.20;99.90
9179;DHT22;4624;48.126;11.546;2022-09-01T05:24:11;15.20;99.90
9179;DHT22;4624;48.126;11.546;2022-09-01T05:26:39;15.20;99.90
9179;DHT22;4624;48.126;11.546;2022-09-01T05:29:09;15.20;99.90
9179;DHT22;4624;48.126;11.546;2022-09-01T05:31:39;15.20;99.90
9179;DHT22;4624;48.126;11.546;2022-09-01T05:34:07;15.20;99.90
9179;DHT22;4624;48.126;11.546;2022-09-01T05:36:36;15.30;99.90
9179;DHT22;4624;48.126;11.546;2022-09-01T05:39:04;15.30;99.90
9179;DHT22;4624;48.126;11.546;2022-09-01T05:41:32;15.30;99.90
9179;DHT22;4624;48.126;11.546;2022-09-01T05:44:01;15.30;99.90
9179;DHT22;4624;48.126;11.546;2022-09-01T05:46:28;15.30;99.90
9179;DHT22;4624;48.126;11.546;2022-09-01T05:48:57;15.20;99.90
9179;DHT22;4624;48.126;11.546;2022-09-01T05:51:26;15.20;99.90
9179;DHT22;4624;48.126;11.546;2022-09-01T05:53:54;15.30;99.90
9179;DHT22;4624;48.126;11.546;2022-09-01T05:56:24;15.30;99.90
9179;DHT22;4624;48.126;11.546;2022-09-01T05:58:52;15.20;99.90
9179;DHT22;4624;48.126;11.546;2022-09-01T06:01:21;15.20;99.90
9179;DHT22;4624;48.126;11.546;2022-09-01T06:03:49;15.20;99.90
9179;DHT22;4624;48.126;11.546;2022-09-01T06:06:20;15.30;99.90
9179;DHT22;4624;48.126;11.546;2022-09-01T06:08:48;15.30;99.90
9179;DHT22;4624;48.126;11.546;2022-09-01T06:11:15;15.50;99.90
9179;DHT22;4624;48.126;11.546;2022-09-01T06:13:43;15.50;99.90
9179;DHT22;4624;48.126;11.546;2022-09-01T06:16:12;15.50;99.90
9179;DHT22;4624;48.126;11.546;2022-09-01T06:18:40;15.60;99.90
9179;DHT22;4624;48.126;11.546;2022-09-01T06:21:08;15.80;99.90
9179;DHT22;4624;48.126;11.546;2022-09-01T06:23:40;15.80;99.90
9179;DHT22;4624;48.126;11.546;2022-09-01T06:26:15;15.70;99.90
9179;DHT22;4624;48.126;11.546;2022-09-01T06:28:42;15.80;99.90
9179;DHT22;4624;48.126;11.546;2022-09-01T06:31:09;15.70;99.90
9179;DHT22;4624;48.126;11.546;2022-09-01T06:33:36;15.80;99.90
9179;DHT22;4624;48.126;11.546;2022-09-01T06:36:03;15.70;99.90
9179;DHT22;4624;48.126;11.546;2022-09-01T06:38:31;15.70;99.90
9179;DHT22;4624;48.126;11.546;2022-09-01T06:41:00;15.70;99.90
9179;DHT22;4624;48.126;11.546;2022-09-01T06:43:28;15.70;99.90
9179;DHT22;4624;48.126;11.546;2022-09-01T06:45:59;15.80;99.90
9179;DHT22;4624;48.126;11.546;2022-09-01T06:48:26;15.80;99.90
9179;DHT22;4624;48.126;11.546;2022-09-01T06:50:59;15.90;99.90
9179;DHT22;4624;48.126;11.546;2022-09-01T06:53:26;15.90;99.90
9179;DHT22;4624;48.126;11.546;2022-09-01T06:55:53;15.90;99.90
9179;DHT22;4624;48.126;11.546;2022-09-01T06:58:22;16.00;99.90
9179;DHT22;4624;48.126;11.546;2022-09-01T07:00:50;16.30;99.90
9179;DHT22;4624;48.126;11.546;2022-09-01T07:03:17;16.50;99.90
9179;DHT22;4624;48.126;11.546;2022-09-01T07:05:46;16.50;99.90
9179;DHT22;4624;48.126;11.546;2022-09-01T07:08:15;16.60;99.90
9179;DHT22;4624;48.126;11.546;2022-09-01T07:10:46;16.50;99.90
9179;DHT22;4624;48.126;11.546;2022-09-01T07:13:16;16.40;99.90
9179;DHT22;4624;48.126;11.546;2022-09-01T07:15:49;16.20;99.90
9179;DHT22;4624;48.126;11.546;2022-09-01T07:18:18;16.20;99.90
9179;DHT22;4624;48.126;11.546;2022-09-01T07:20:47;16.10;99.90
9179;DHT22;4624;48.126;11.546;2022-09-01T07:23:15;16.10;99.90
9179;DHT22;4624;48.126;11.546;2022-09-01T07:25:44;16.10;99.90
9179;DHT22;4624;48.126;11.546;2022-09-01T07:28:12;15.90;99.90
9179;DHT22;4624;48.126;11.546;2022-09-01T07:30:42;16.00;99.90
9179;DHT22;4624;48.126;11.546;2022-09-01T07:33:11;16.10;99.90
9179;DHT22;4624;48.126;11.546;2022-09-01T07:35:39;16.20;99.90
9179;DHT22;4624;48.126;11.546;2022-09-01T07:38:07;16.30;99.90
9179;DHT22;4624;48.126;11.546;2022-09-01T07:40:35;16.50;99.90
9179;DHT22;4624;48.126;11.546;2022-09-01T07:43:04;16.50;99.90
9179;DHT22;4624;48.126;11.546;2022-09-01T07:45:34;16.50;99.90
9179;DHT22;4624;48.126;11.546;2022-09-01T07:48:04;16.50;99.90
9179;DHT22;4624;48.126;11.546;2022-09-01T07:50:34;16.60;99.90
9179;DHT22;4624;48.126;11.546;2022-09-01T07:53:02;16.80;99.90
9179;DHT22;4624;48.126;11.546;2022-09-01T07:55:30;16.90;99.90
9179;DHT22;4624;48.126;11.546;2022-09-01T07:57:57;17.00;99.90
9179;DHT22;4624;48.126;11.546;2022-09-01T08:00:24;17.30;99.90
9179;DHT22;4624;48.126;11.546;2022-09-01T08:02:53;17.40;99.90
9179;DHT22;4624;48.126;11.546;2022-09-01T08:05:19;17.50;99.90
9179;DHT22;4624;48.126;11.546;2022-09-01T08:07:52;17.40;99.90
9179;DHT22;4624;48.126;11.546;2022-09-01T08:10:19;17.40;99.90
9179;DHT22;4624;48.126;11.546;2022-09-01T08:12:46;17.60;99.90
9179;DHT22;4624;48.126;11.546;2022-09-01T08:15:13;17.70;99.90
9179;DHT22;4624;48.126;11.546;2022-09-01T08:17:42;17.80;99.90
9179;DHT22;4624;48.126;11.546;2022-09-01T08:20:10;17.70;99.90
9179;DHT22;4624;48.126;11.546;2022-09-01T08:22:37;17.80;99.90
9179;DHT22;4624;48.126;11.546;2022-09-01T08:25:06;18.00;99.90
9179;DHT22;4624;48.126;11.546;2022-09-01T08:27:35;18.10;99.80
9179;DHT22;4624;48.126;11.546;2022-09-01T08:30:04;18.10;99.50
9179;DHT22;4624;48.126;11.546;2022-09-01T08:32:31;18.20;99.10
9179;DHT22;4624;48.126;11.546;2022-09-01T08:34:59;18.20;98.90
9179;DHT22;4624;48.126;11.546;2022-09-01T08:37:26;18.20;99.10
9179;DHT22;4624;48.126;11.546;2022-09-01T08:39:53;18.30;98.90
9179;DHT22;4624;48.126;11.546;2022-09-01T08:42:32;18.40;98.90
9179;DHT22;4624;48.126;11.546;2022-09-01T08:45:07;18.60;99.10
9179;DHT22;4624;48.126;11.546;2022-09-01T08:47:37;18.70;99.10
9179;DHT22;4624;48.126;11.546;2022-09-01T08:50:05;18.80;98.90
9179;DHT22;4624;48.126;11.546;2022-09-01T08:52:34;18.90;98.80
9179;DHT22;4624;48.126;11.546;2022-09-01T08:55:05;18.80;98.60
9179;DHT22;4624;48.126;11.546;2022-09-01T08:57:35;18.80;98.20
9179;DHT22;4624;48.126;11.546;2022-09-01T09:00:04;18.90;97.90
9179;DHT22;4624;48.126;11.546;2022-09-01T09:02:42;18.90;97.90
9179;DHT22;4624;48.126;11.546;2022-09-01T09:05:27;18.80;97.50
9179;DHT22;4624;48.126;11.546;2022-09-01T09:08:07;18.90;97.50
9179;DHT22;4624;48.126;11.546;2022-09-01T09:10:42;19.00;97.50
9179;DHT22;4624;48.126;11.546;2022-09-01T09:13:20;19.20;97.30
9179;DHT22;4624;48.126;11.546;2022-09-01T09:15:51;19.20;96.30
9179;DHT22;4624;48.126;11.546;2022-09-01T09:18:26;19.10;96.50
9179;DHT22;4624;48.126;11.546;2022-09-01T09:20:56;19.30;96.40
9179;DHT22;4624;48.126;11.546;2022-09-01T09:23:34;19.40;95.60
9179;DHT22;4624;48.126;11.546;2022-09-01T09:26:02;19.60;95.60
9179;DHT22;4624;48.126;11.546;2022-09-01T09:28:30;19.90;95.10
9179;DHT22;4624;48.126;11.546;2022-09-01T09:31:28;20.10;94.60
9179;DHT22;4624;48.126;11.546;2022-09-01T09:33:56;20.50;94.60
9179;DHT22;4624;48.126;11.546;2022-09-01T09:36:29;20.80;93.90
9179;DHT22;4624;48.126;11.546;2022-09-01T09:39:11;21.00;93.20
9179;DHT22;4624;48.126;11.546;2022-09-01T09:41:39;21.00;92.40
9179;DHT22;4624;48.126;11.546;2022-09-01T09:44:18;21.00;92.60
9179;DHT22;4624;48.126;11.546;2022-09-01T09:46:47;21.20;92.40
9179;DHT22;4624;48.126;11.546;2022-09-01T09:49:19;21.50;92.00
9179;DHT22;4624;48.126;11.546;2022-09-01T09:51:50;21.80;91.10
9179;DHT22;4624;48.126;11.546;2022-09-01T09:54:20;22.70;90.00
9179;DHT22;4624;48.126;11.546;2022-09-01T09:57:02;23.50;87.10
9179;DHT22;4624;48.126;11.546;2022-09-01T09:59:34;24.00;85.90
9179;DHT22;4624;48.126;11.546;2022-09-01T10:04:59;26.20;80.70
9179;DHT22;4624;48.126;11.546;2022-09-01T10:07:30;27.30;76.30
9179;DHT22;4624;48.126;11.546;2022-09-01T10:10:00;28.30;71.90
9179;DHT22;4624;48.126;11.546;2022-09-01T10:12:28;29.30;68.80
9179;DHT22;4624;48.126;11.546;2022-09-01T10:15:00;30.00;64.30
9179;DHT22;4624;48.126;11.546;2022-09-01T10:17:31;30.40;57.60
9179;DHT22;4624;48.126;11.546;2022-09-01T10:20:03;29.00;58.00
9179;DHT22;4624;48.126;11.546;2022-09-01T10:22:32;28.50;57.70
9179;DHT22;4624;48.126;11.546;2022-09-01T10:25:01;27.00;59.00
9179;DHT22;4624;48.126;11.546;2022-09-01T10:27:30;27.00;60.20
9179;DHT22;4624;48.126;11.546;2022-09-01T10:30:05;27.90;59.30
9179;DHT22;4624;48.126;11.546;2022-09-01T10:32:38;28.70;57.10
9179;DHT22;4624;48.126;11.546;2022-09-01T10:35:07;29.50;56.30
9179;DHT22;4624;48.126;11.546;2022-09-01T10:37:36;30.40;54.90
9179;DHT22;4624;48.126;11.546;2022-09-01T10:40:14;31.40;51.60
9179;DHT22;4624;48.126;11.546;2022-09-01T10:42:43;31.40;50.60
9179;DHT22;4624;48.126;11.546;2022-09-01T10:45:28;30.70;52.30
9179;DHT22;4624;48.126;11.546;2022-09-01T10:47:55;30.00;51.60
9179;DHT22;4624;48.126;11.546;2022-09-01T10:50:25;29.10;53.00
9179;DHT22;4624;48.126;11.546;2022-09-01T10:52:55;29.90;53.60
9179;DHT22;4624;48.126;11.546;2022-09-01T10:55:25;30.80;50.60
9179;DHT22;4624;48.126;11.546;2022-09-01T10:57:59;29.80;51.30
9179;DHT22;4624;48.126;11.546;2022-09-01T11:00:50;30.50;51.10
9179;DHT22;4624;48.126;11.546;2022-09-01T11:03:48;30.60;51.00
9179;DHT22;4624;48.126;11.546;2022-09-01T11:09:28;28.90;52.10
9179;DHT22;4624;48.126;11.546;2022-09-01T11:12:11;30.70;50.80
9179;DHT22;4624;48.126;11.546;2022-09-01T11:14:48;31.60;47.50
9179;DHT22;4624;48.126;11.546;2022-09-01T11:17:20;31.90;45.90
9179;DHT22;4624;48.126;11.546;2022-09-01T11:19:54;32.40;44.80
9179;DHT22;4624;48.126;11.546;2022-09-01T11:22:31;30.90;46.40
9179;DHT22;4624;48.126;11.546;2022-09-01T11:28:36;27.20;52.10
9179;DHT22;4624;48.126;11.546;2022-09-01T11:31:15;26.00;55.20
9179;DHT22;4624;48.126;11.546;2022-09-01T11:33:51;26.30;56.20
9179;DHT22;4624;48.126;11.546;2022-09-01T11:36:25;25.70;56.10
9179;DHT22;4624;48.126;11.546;2022-09-01T11:39:01;26.40;56.30
9179;DHT22;4624;48.126;11.546;2022-09-01T11:41:31;26.60;54.90
9179;DHT22;4624;48.126;11.546;2022-09-01T11:44:01;28.00;53.40
9179;DHT22;4624;48.126;11.546;2022-09-01T11:46:31;28.50;51.10
9179;DHT22;4624;48.126;11.546;2022-09-01T11:49:04;28.00;50.60
9179;DHT22;4624;48.126;11.546;2022-09-01T11:51:43;29.20;49.10
9179;DHT22;4624;48.126;11.546;2022-09-01T11:54:10;30.50;47.20
9179;DHT22;4624;48.126;11.546;2022-09-01T11:56:38;30.70;45.90
9179;DHT22;4624;48.126;11.546;2022-09-01T11:59:05;31.50;45.40
9179;DHT22;4624;48.126;11.546;2022-09-01T12:01:34;32.00;44.40
9179;DHT22;4624;48.126;11.546;2022-09-01T12:04:19;32.80;44.40
9179;DHT22;4624;48.126;11.546;2022-09-01T12:06:53;33.80;43.90
9179;DHT22;4624;48.126;11.546;2022-09-01T12:09:20;34.50;43.10
9179;DHT22;4624;48.126;11.546;2022-09-01T12:11:47;34.00;41.80
9179;DHT22;4624;48.126;11.546;2022-09-01T12:14:20;32.40;43.20
9179;DHT22;4624;48.126;11.546;2022-09-01T12:16:56;31.70;44.90
9179;DHT22;4624;48.126;11.546;2022-09-01T12:19:27;30.40;45.80
9179;DHT22;4624;48.126;11.546;2022-09-01T12:22:00;28.90;47.20
9179;DHT22;4624;48.126;11.546;2022-09-01T12:24:30;27.60;48.30
9179;DHT22;4624;48.126;11.546;2022-09-01T12:26:58;26.60;50.00
9179;DHT22;4624;48.126;11.546;2022-09-01T12:29:26;25.80;51.60
9179;DHT22;4624;48.126;11.546;2022-09-01T12:31:53;24.90;53.20
9179;DHT22;4624;48.126;11.546;2022-09-01T12:34:30;24.40;54.30
9179;DHT22;4624;48.126;11.546;2022-09-01T12:37:04;24.00;55.60
9179;DHT22;4624;48.126;11.546;2022-09-01T12:39:33;23.80;56.10
9179;DHT22;4624;48.126;11.546;2022-09-01T12:42:03;23.60;56.40
9179;DHT22;4624;48.126;11.546;2022-09-01T12:44:32;23.50;57.80
9179;DHT22;4624;48.126;11.546;2022-09-01T12:47:01;23.30;59.20
9179;DHT22;4624;48.126;11.546;2022-09-01T12:49:41;23.10;60.00
9179;DHT22;4624;48.126;11.546;2022-09-01T12:52:26;22.90;61.30
9179;DHT22;4624;48.126;11.546;2022-09-01T12:55:07;22.70;61.20
9179;DHT22;4624;48.126;11.546;2022-09-01T12:57:37;22.60;61.00
9179;DHT22;4624;48.126;11.546;2022-09-01T13:00:13;22.50;61.50
9179;DHT22;4624;48.126;11.546;2022-09-01T13:02:44;22.60;62.10
9179;DHT22;4624;48.126;11.546;2022-09-01T13:05:23;22.70;62.60
9179;DHT22;4624;48.126;11.546;2022-09-01T13:07:52;22.80;63.40
9179;DHT22;4624;48.126;11.546;2022-09-01T13:10:20;22.80;63.90
9179;DHT22;4624;48.126;11.546;2022-09-01T13:12:47;22.60;64.10
9179;DHT22;4624;48.126;11.546;2022-09-01T13:15:15;22.60;64.20
9179;DHT22;4624;48.126;11.546;2022-09-01T13:17:42;22.40;64.30
9179;DHT22;4624;48.126;11.546;2022-09-01T13:20:09;22.40;64.20
9179;DHT22;4624;48.126;11.546;2022-09-01T13:22:39;22.50;64.50
9179;DHT22;4624;48.126;11.546;2022-09-01T13:25:07;22.50;65.10
9179;DHT22;4624;48.126;11.546;2022-09-01T13:27:35;22.40;65.40
9179;DHT22;4624;48.126;11.546;2022-09-01T13:30:03;22.30;65.80
9179;DHT22;4624;48.126;11.546;2022-09-01T13:32:31;22.20;65.90
9179;DHT22;4624;48.126;11.546;2022-09-01T13:34:58;22.10;66.00
9179;DHT22;4624;48.126;11.546;2022-09-01T13:37:25;22.10;66.90
9179;DHT22;4624;48.126;11.546;2022-09-01T13:39:53;22.10;65.20
9179;DHT22;4624;48.126;11.546;2022-09-01T13:42:20;22.00;65.30
9179;DHT22;4624;48.126;11.546;2022-09-01T13:44:47;22.00;66.00
9179;DHT22;4624;48.126;11.546;2022-09-01T13:47:14;22.00;65.40
9179;DHT22;4624;48.126;11.546;2022-09-01T13:49:40;21.90;65.70
9179;DHT22;4624;48.126;11.546;2022-09-01T13:52:07;21.90;64.80
9179;DHT22;4624;48.126;11.546;2022-09-01T13:54:34;21.70;64.30
9179;DHT22;4624;48.126;11.546;2022-09-01T13:57:02;21.60;65.50
9179;DHT22;4624;48.126;11.546;2022-09-01T13:59:29;21.50;65.70
9179;DHT22;4624;48.126;11.546;2022-09-01T14:01:57;21.50;66.50
9179;DHT22;4624;48.126;11.546;2022-09-01T14:04:25;21.60;66.40
9179;DHT22;4624;48.126;11.546;2022-09-01T14:06:52;21.60;66.50
9179;DHT22;4624;48.126;11.546;2022-09-01T14:09:19;21.70;65.90
9179;DHT22;4624;48.126;11.546;2022-09-01T14:11:46;21.70;66.30
9179;DHT22;4624;48.126;11.546;2022-09-01T14:14:14;21.70;66.80
9179;DHT22;4624;48.126;11.546;2022-09-01T14:16:41;21.60;66.80
9179;DHT22;4624;48.126;11.546;2022-09-01T14:19:10;21.50;67.10
9179;DHT22;4624;48.126;11.546;2022-09-01T14:21:37;21.40;67.30
9179;DHT22;4624;48.126;11.546;2022-09-01T14:24:05;21.40;67.50
9179;DHT22;4624;48.126;11.546;2022-09-01T14:26:33;21.40;67.70
9179;DHT22;4624;48.126;11.546;2022-09-01T14:28:59;21.40;67.60
9179;DHT22;4624;48.126;11.546;2022-09-01T14:31:28;21.40;68.60
9179;DHT22;4624;48.126;11.546;2022-09-01T14:33:56;21.30;70.00
9179;DHT22;4624;48.126;11.546;2022-09-01T14:36:25;21.20;69.60
9179;DHT22;4624;48.126;11.546;2022-09-01T14:38:53;21.10;68.90
9179;DHT22;4624;48.126;11.546;2022-09-01T14:41:21;21.00;70.20
9179;DHT22;4624;48.126;11.546;2022-09-01T14:43:49;20.90;68.50
9179;DHT22;4624;48.126;11.546;2022-09-01T14:46:17;21.00;68.80
9179;DHT22;4624;48.126;11.546;2022-09-01T14:48:46;21.00;69.60
9179;DHT22;4624;48.126;11.546;2022-09-01T14:51:20;21.00;69.60
9179;DHT22;4624;48.126;11.546;2022-09-01T14:53:48;21.10;69.80
9179;DHT22;4624;48.126;11.546;2022-09-01T14:56:15;21.20;70.50
9179;DHT22;4624;48.126;11.546;2022-09-01T14:58:43;21.20;68.50
9179;DHT22;4624;48.126;11.546;2022-09-01T15:01:12;21.10;67.30
9179;DHT22;4624;48.126;11.546;2022-09-01T15:03:39;21.00;65.90
9179;DHT22;4624;48.126;11.546;2022-09-01T15:06:10;21.00;64.30
9179;DHT22;4624;48.126;11.546;2022-09-01T15:08:38;21.00;62.40
9179;DHT22;4624;48.126;11.546;2022-09-01T15:11:07;21.00;64.20
9179;DHT22;4624;48.126;11.546;2022-09-01T15:13:35;21.00;63.20
9179;DHT22;4624;48.126;11.546;2022-09-01T15:16:02;21.00;62.80
9179;DHT22;4624;48.126;11.546;2022-09-01T15:18:30;21.00;61.90
9179;DHT22;4624;48.126;11.546;2022-09-01T15:20:56;21.00;61.30
9179;DHT22;4624;48.126;11.546;2022-09-01T15:23:25;21.00;60.80
9179;DHT22;4624;48.126;11.546;2022-09-01T15:25:54;21.00;61.20
9179;DHT22;4624;48.126;11.546;2022-09-01T15:28:22;20.90;61.80
9179;DHT22;4624;48.126;11.546;2022-09-01T15:30:49;20.90;62.40
9179;DHT22;4624;48.126;11.546;2022-09-01T15:33:17;20.90;62.20
9179;DHT22;4624;48.126;11.546;2022-09-01T15:35:44;20.90;63.10
9179;DHT22;4624;48.126;11.546;2022-09-01T15:38:12;20.80;62.10
9179;DHT22;4624;48.126;11.546;2022-09-01T15:40:41;20.80;62.70
9179;DHT22;4624;48.126;11.546;2022-09-01T15:43:08;20.70;63.10
9179;DHT22;4624;48.126;11.546;2022-09-01T15:45:36;20.70;63.80
9179;DHT22;4624;48.126;11.546;2022-09-01T15:48:03;20.70;64.40
9179;DHT22;4624;48.126;11.546;2022-09-01T15:50:30;20.80;64.70
9179;DHT22;4624;48.126;11.546;2022-09-01T15:52:59;20.80;64.60
9179;DHT22;4624;48.126;11.546;2022-09-01T15:55:28;20.90;64.70
9179;DHT22;4624;48.126;11.546;2022-09-01T15:57:57;20.90;64.10
9179;DHT22;4624;48.126;11.546;2022-09-01T16:00:26;20.80;63.30
9179;DHT22;4624;48.126;11.546;2022-09-01T16:02:53;20.80;63.90
9179;DHT22;4624;48.126;11.546;2022-09-01T16:05:21;20.80;63.60
9179;DHT22;4624;48.126;11.546;2022-09-01T16:07:50;20.70;63.20
9179;DHT22;4624;48.126;11.546;2022-09-01T16:10:17;20.60;63.00